sensor_id;sensor_type;location;lat;lon;timestamp;P1;durP1;ratioP1;P2;durP2;ratioP2
27612;SDS011;15036;48.094;-1.690;2023-11-19T00:01:26;12.88;;;3.38;;
27612;SDS011;15036;48.094;-1.690;2023-11-19T00:03:52;12.00;;;2.90;;
27612;SDS011;15036;48.094;-1.690;2023-11-19T00:06:18;11.48;;;3.03;;
27612;SDS011;15036;48.094;-1.690;2023-11-19T00:08:43;13.73;;;3.15;;
27612;SDS011;15036;48.094;-1.690;2023-11-19T00:11:09;15.30;;;3.30;;
27612;SDS011;15036;48.094;-1.690;2023-11-19T00:13:34;11.70;;;2.83;;
27612;SDS011;15036;48.094;-1.690;2023-11-19T00:15:59;13.93;;;3.20;;
27612;SDS011;15036;48.094;-1.690;2023-11-19T00:18:25;15.63;;;3.35;;
27612;SDS011;15036;48.094;-1.690;2023-11-19T00:20:50;12.45;;;3.45;;
27612;SDS011;15036;48.094;-1.690;2023-11-19T00:23:16;17.52;;;3.63;;
27612;SDS011;15036;48.094;-1.690;2023-11-19T00:25:41;12.20;;;3.40;;
27612;SDS011;15036;48.094;-1.690;2023-11-19T00:28:06;13.38;;;3.15;;
27612;SDS011;15036;48.094;-1.690;2023-11-19T00:30:32;19.52;;;3.63;;
27612;SDS011;15036;48.094;-1.690;2023-11-19T00:32:57;14.02;;;3.58;;
27612;SDS011;15036;48.094;-1.690;2023-11-19T00:35:22;15.80;;;3.40;;
27612;SDS011;15036;48.094;-1.690;2023-11-19T00:37:49;14.95;;;3.55;;
27612;SDS011;15036;48.094;-1.690;2023-11-19T00:40:15;14.15;;;3.53;;
27612;SDS011;15036;48.094;-1.690;2023-11-19T00:42:43;15.98;;;3.95;;
27612;SDS011;15036;48.094;-1.690;2023-11-19T00:45:09;19.30;;;3.78;;
27612;SDS011;15036;48.094;-1.690;2023-11-19T00:47:35;15.88;;;3.67;;
27612;SDS011;15036;48.094;-1.690;2023-11-19T00:50:01;15.68;;;3.85;;
27612;SDS011;15036;48.094;-1.690;2023-11-19T00:52:27;14.48;;;3.00;;
27612;SDS011;15036;48.094;-1.690;2023-11-19T00:54:52;17.58;;;3.80;;
27612;SDS011;15036;48.094;-1.690;2023-11-19T00:57:18;20.63;;;3.67;;
27612;SDS011;15036;48.094;-1.690;2023-11-19T00:59:44;16.17;;;3.92;;
27612;SDS011;15036;48.094;-1.690;2023-11-19T01:02:09;16.88;;;3.85;;
27612;SDS011;15036;48.094;-1.690;2023-11-19T01:04:35;16.40;;;4.18;;
27612;SDS011;15036;48.094;-1.690;2023-11-19T01:07:01;19.85;;;4.25;;
27612;SDS011;15036;48.094;-1.690;2023-11-19T01:09:31;17.88;;;3.95;;
27612;SDS011;15036;48.094;-1.690;2023-11-19T01:12:00;18.73;;;3.95;;
27612;SDS011;15036;48.094;-1.690;2023-11-19T01:14:28;23.10;;;4.20;;
27612;SDS011;15036;48.094;-1.690;2023-11-19T01:16:53;15.60;;;3.67;;
27612;SDS011;15036;48.094;-1.690;2023-11-19T01:19:19;22.83;;;4.47;;
27612;SDS011;15036;48.094;-1.690;2023-11-19T01:21:47;17.38;;;4.03;;
27612;SDS011;15036;48.094;-1.690;2023-11-19T01:24:12;21.33;;;4.18;;
27612;SDS011;15036;48.094;-1.690;2023-11-19T01:26:39;18.70;;;3.97;;
27612;SDS011;15036;48.094;-1.690;2023-11-19T01:29:10;20.92;;;4.03;;
27612;SDS011;15036;48.094;-1.690;2023-11-19T01:31:38;19.67;;;4.32;;
27612;SDS011;15036;48.094;-1.690;2023-11-19T01:34:04;25.08;;;4.78;;
27612;SDS011;15036;48.094;-1.690;2023-11-19T01:36:30;19.67;;;4.47;;
27612;SDS011;15036;48.094;-1.690;2023-11-19T01:38:55;19.90;;;4.00;;
27612;SDS011;15036;48.094;-1.690;2023-11-19T01:41:20;25.98;;;4.63;;
27612;SDS011;15036;48.094;-1.690;2023-11-19T01:43:46;17.52;;;4.10;;
27612;SDS011;15036;48.094;-1.690;2023-11-19T01:46:12;24.50;;;4.45;;
27612;SDS011;15036;48.094;-1.690;2023-11-19T01:48:41;16.88;;;4.72;;
27612;SDS011;15036;48.094;-1.690;2023-11-19T01:51:10;21.63;;;4.35;;
27612;SDS011;15036;48.094;-1.690;2023-11-19T01:53:37;26.20;;;4.50;;
27612;SDS011;15036;48.094;-1.690;2023-11-19T01:56:04;26.90;;;4.97;;
27612;SDS011;15036;48.094;-1.690;2023-11-19T01:58:35;24.15;;;4.85;;
27612;SDS011;15036;48.094;-1.690;2023-11-19T02:01:01;24.23;;;4.80;;
27612;SDS011;15036;48.094;-1.690;2023-11-19T02:03:29;22.73;;;4.90;;
27612;SDS011;15036;48.094;-1.690;2023-11-19T02:05:57;25.27;;;5.25;;
27612;SDS011;15036;48.094;-1.690;2023-11-19T02:08:23;25.60;;;4.93;;
27612;SDS011;15036;48.094;-1.690;2023-11-19T02:10:49;22.35;;;4.55;;
27612;SDS011;15036;48.094;-1.690;2023-11-19T02:13:14;28.27;;;5.10;;
27612;SDS011;15036;48.094;-1.690;2023-11-19T02:15:41;24.02;;;5.00;;
27612;SDS011;15036;48.094;-1.690;2023-11-19T02:18:26;23.73;;;4.80;;
27612;SDS011;15036;48.094;-1.690;2023-11-19T02:20:58;27.23;;;5.07;;
27612;SDS011;15036;48.094;-1.690;2023-11-19T02:23:25;26.02;;;4.80;;
27612;SDS011;15036;48.094;-1.690;2023-11-19T02:28:37;24.73;;;4.75;;
27612;SDS011;15036;48.094;-1.690;2023-11-19T02:31:03;23.83;;;5.28;;
27612;SDS011;15036;48.094;-1.690;2023-11-19T02:33:38;26.90;;;5.13;;
27612;SDS011;15036;48.094;-1.690;2023-11-19T02:36:04;28.98;;;5.70;;
27612;SDS011;15036;48.094;-1.690;2023-11-19T02:38:31;25.38;;;5.60;;
27612;SDS011;15036;48.094;-1.690;2023-11-19T02:40:58;25.50;;;5.50;;
27612;SDS011;15036;48.094;-1.690;2023-11-19T02:43:23;27.77;;;5.70;;
27612;SDS011;15036;48.094;-1.690;2023-11-19T02:45:48;29.65;;;5.82;;
27612;SDS011;15036;48.094;-1.690;2023-11-19T02:48:15;29.70;;;6.03;;
27612;SDS011;15036;48.094;-1.690;2023-11-19T02:50:42;26.10;;;5.05;;
27612;SDS011;15036;48.094;-1.690;2023-11-19T02:53:08;32.50;;;5.90;;
27612;SDS011;15036;48.094;-1.690;2023-11-19T02:55:33;28.27;;;5.35;;
27612;SDS011;15036;48.094;-1.690;2023-11-19T02:58:02;28.80;;;5.65;;
27612;SDS011;15036;48.094;-1.690;2023-11-19T03:00:34;29.30;;;5.68;;
27612;SDS011;15036;48.094;-1.690;2023-11-19T03:03:07;32.58;;;6.30;;
27612;SDS011;15036;48.094;-1.690;2023-11-19T03:05:45;32.80;;;5.70;;
27612;SDS011;15036;48.094;-1.690;2023-11-19T03:08:17;28.52;;;6.05;;
27612;SDS011;15036;48.094;-1.690;2023-11-19T03:10:43;28.07;;;4.97;;
27612;SDS011;15036;48.094;-1.690;2023-11-19T03:13:11;32.95;;;5.80;;
27612;SDS011;15036;48.094;-1.690;2023-11-19T03:15:40;28.27;;;5.78;;
27612;SDS011;15036;48.094;-1.690;2023-11-19T03:18:06;28.05;;;5.15;;
27612;SDS011;15036;48.094;-1.690;2023-11-19T03:20:32;30.38;;;5.55;;
27612;SDS011;15036;48.094;-1.690;2023-11-19T03:22:57;26.20;;;5.53;;
27612;SDS011;15036;48.094;-1.690;2023-11-19T03:25:26;29.50;;;6.10;;
27612;SDS011;15036;48.094;-1.690;2023-11-19T03:28:01;29.08;;;5.75;;
27612;SDS011;15036;48.094;-1.690;2023-11-19T03:30:28;28.60;;;5.60;;
27612;SDS011;15036;48.094;-1.690;2023-11-19T03:32:53;27.17;;;6.10;;
27612;SDS011;15036;48.094;-1.690;2023-11-19T03:35:22;27.20;;;5.82;;
27612;SDS011;15036;48.094;-1.690;2023-11-19T03:37:50;26.55;;;5.97;;
27612;SDS011;15036;48.094;-1.690;2023-11-19T03:40:17;30.55;;;6.28;;
27612;SDS011;15036;48.094;-1.690;2023-11-19T03:42:44;33.22;;;6.07;;
27612;SDS011;15036;48.094;-1.690;2023-11-19T03:45:10;26.95;;;5.70;;
27612;SDS011;15036;48.094;-1.690;2023-11-19T03:47:36;34.22;;;6.05;;
27612;SDS011;15036;48.094;-1.690;2023-11-19T03:50:02;26.05;;;5.18;;
27612;SDS011;15036;48.094;-1.690;2023-11-19T03:52:29;28.02;;;6.15;;
27612;SDS011;15036;48.094;-1.690;2023-11-19T03:54:54;31.75;;;7.00;;
27612;SDS011;15036;48.094;-1.690;2023-11-19T03:57:20;32.35;;;6.70;;
27612;SDS011;15036;48.094;-1.690;2023-11-19T03:59:48;30.52;;;6.32;;
27612;SDS011;15036;48.094;-1.690;2023-11-19T04:02:13;31.10;;;6.03;;
27612;SDS011;15036;48.094;-1.690;2023-11-19T04:04:40;35.30;;;6.30;;
27612;SDS011;15036;48.094;-1.690;2023-11-19T04:07:05;33.10;;;6.38;;
27612;SDS011;15036;48.094;-1.690;2023-11-19T04:09:31;35.38;;;6.63;;
27612;SDS011;15036;48.094;-1.690;2023-11-19T04:11:59;35.22;;;6.57;;
27612;SDS011;15036;48.094;-1.690;2023-11-19T04:14:25;33.45;;;6.60;;
27612;SDS011;15036;48.094;-1.690;2023-11-19T04:16:51;48.30;;;7.22;;
27612;SDS011;15036;48.094;-1.690;2023-11-19T04:19:17;31.38;;;6.50;;
27612;SDS011;15036;48.094;-1.690;2023-11-19T04:21:43;38.80;;;6.68;;
27612;SDS011;15036;48.094;-1.690;2023-11-19T04:24:08;44.05;;;7.47;;
27612;SDS011;15036;48.094;-1.690;2023-11-19T04:26:41;29.52;;;6.38;;
27612;SDS011;15036;48.094;-1.690;2023-11-19T04:29:09;32.70;;;6.78;;
27612;SDS011;15036;48.094;-1.690;2023-11-19T04:31:34;35.10;;;7.13;;
27612;SDS011;15036;48.094;-1.690;2023-11-19T04:34:00;38.25;;;6.93;;
27612;SDS011;15036;48.094;-1.690;2023-11-19T04:36:25;39.83;;;7.45;;
27612;SDS011;15036;48.094;-1.690;2023-11-19T04:38:51;37.50;;;6.88;;
27612;SDS011;15036;48.094;-1.690;2023-11-19T04:41:16;44.28;;;6.75;;
27612;SDS011;15036;48.094;-1.690;2023-11-19T04:43:41;35.10;;;6.80;;
27612;SDS011;15036;48.094;-1.690;2023-11-19T04:46:07;36.92;;;7.68;;
27612;SDS011;15036;48.094;-1.690;2023-11-19T04:48:34;37.10;;;6.93;;
27612;SDS011;15036;48.094;-1.690;2023-11-19T04:50:59;36.78;;;6.70;;
27612;SDS011;15036;48.094;-1.690;2023-11-19T04:53:25;33.10;;;6.72;;
27612;SDS011;15036;48.094;-1.690;2023-11-19T04:55:50;45.78;;;8.13;;
27612;SDS011;15036;48.094;-1.690;2023-11-19T04:58:15;33.97;;;6.57;;
27612;SDS011;15036;48.094;-1.690;2023-11-19T05:00:41;32.97;;;7.47;;
27612;SDS011;15036;48.094;-1.690;2023-11-19T05:03:06;36.33;;;6.88;;
27612;SDS011;15036;48.094;-1.690;2023-11-19T05:05:33;36.53;;;7.20;;
27612;SDS011;15036;48.094;-1.690;2023-11-19T05:07:58;50.90;;;7.78;;
27612;SDS011;15036;48.094;-1.690;2023-11-19T05:10:24;34.22;;;6.28;;
27612;SDS011;15036;48.094;-1.690;2023-11-19T05:12:49;37.42;;;6.65;;
27612;SDS011;15036;48.094;-1.690;2023-11-19T05:15:16;39.88;;;7.90;;
27612;SDS011;15036;48.094;-1.690;2023-11-19T05:17:42;37.92;;;7.40;;
27612;SDS011;15036;48.094;-1.690;2023-11-19T05:20:07;35.88;;;6.60;;
27612;SDS011;15036;48.094;-1.690;2023-11-19T05:22:41;40.45;;;6.78;;
27612;SDS011;15036;48.094;-1.690;2023-11-19T05:25:08;43.70;;;8.40;;
27612;SDS011;15036;48.094;-1.690;2023-11-19T05:27:35;35.85;;;6.85;;
27612;SDS011;15036;48.094;-1.690;2023-11-19T05:30:01;33.30;;;6.90;;
27612;SDS011;15036;48.094;-1.690;2023-11-19T05:32:27;33.65;;;6.75;;
27612;SDS011;15036;48.094;-1.690;2023-11-19T05:34:53;40.63;;;7.40;;
27612;SDS011;15036;48.094;-1.690;2023-11-19T05:37:18;44.10;;;7.05;;
27612;SDS011;15036;48.094;-1.690;2023-11-19T05:39:44;37.75;;;7.15;;
27612;SDS011;15036;48.094;-1.690;2023-11-19T05:42:10;39.60;;;6.35;;
27612;SDS011;15036;48.094;-1.690;2023-11-19T05:44:35;34.25;;;6.32;;
27612;SDS011;15036;48.094;-1.690;2023-11-19T05:47:01;37.35;;;7.18;;
27612;SDS011;15036;48.094;-1.690;2023-11-19T05:49:27;33.75;;;6.68;;
27612;SDS011;15036;48.094;-1.690;2023-11-19T05:51:52;41.75;;;7.43;;
27612;SDS011;15036;48.094;-1.690;2023-11-19T05:54:20;35.75;;;7.70;;
27612;SDS011;15036;48.094;-1.690;2023-11-19T05:56:49;37.60;;;7.40;;
27612;SDS011;15036;48.094;-1.690;2023-11-19T05:59:16;33.78;;;6.85;;
27612;SDS011;15036;48.094;-1.690;2023-11-19T06:01:43;33.53;;;7.03;;
27612;SDS011;15036;48.094;-1.690;2023-11-19T06:04:09;37.08;;;7.05;;
27612;SDS011;15036;48.094;-1.690;2023-11-19T06:06:35;39.42;;;6.97;;
27612;SDS011;15036;48.094;-1.690;2023-11-19T06:09:01;39.20;;;6.75;;
27612;SDS011;15036;48.094;-1.690;2023-11-19T06:11:27;37.60;;;7.53;;
27612;SDS011;15036;48.094;-1.690;2023-11-19T06:13:52;30.00;;;6.00;;
27612;SDS011;15036;48.094;-1.690;2023-11-19T06:16:18;38.25;;;7.10;;
27612;SDS011;15036;48.094;-1.690;2023-11-19T06:18:43;33.55;;;6.97;;
27612;SDS011;15036;48.094;-1.690;2023-11-19T06:21:09;35.50;;;7.25;;
27612;SDS011;15036;48.094;-1.690;2023-11-19T06:23:36;35.15;;;7.25;;
27612;SDS011;15036;48.094;-1.690;2023-11-19T06:26:01;30.38;;;6.97;;
27612;SDS011;15036;48.094;-1.690;2023-11-19T06:28:26;35.50;;;7.10;;
27612;SDS011;15036;48.094;-1.690;2023-11-19T06:30:52;33.47;;;7.25;;
27612;SDS011;15036;48.094;-1.690;2023-11-19T06:33:17;37.88;;;7.40;;
27612;SDS011;15036;48.094;-1.690;2023-11-19T06:35:44;31.75;;;6.88;;
27612;SDS011;15036;48.094;-1.690;2023-11-19T06:38:10;39.72;;;6.80;;
27612;SDS011;15036;48.094;-1.690;2023-11-19T06:40:35;38.63;;;6.68;;
27612;SDS011;15036;48.094;-1.690;2023-11-19T06:43:01;35.70;;;6.65;;
27612;SDS011;15036;48.094;-1.690;2023-11-19T06:45:28;35.03;;;7.00;;
27612;SDS011;15036;48.094;-1.690;2023-11-19T06:47:54;32.53;;;6.18;;
27612;SDS011;15036;48.094;-1.690;2023-11-19T06:50:19;29.60;;;6.55;;
27612;SDS011;15036;48.094;-1.690;2023-11-19T06:52:45;37.20;;;7.57;;
27612;SDS011;15036;48.094;-1.690;2023-11-19T06:55:10;35.25;;;6.53;;
27612;SDS011;15036;48.094;-1.690;2023-11-19T06:57:36;35.80;;;6.78;;
27612;SDS011;15036;48.094;-1.690;2023-11-19T07:00:02;38.38;;;7.28;;
27612;SDS011;15036;48.094;-1.690;2023-11-19T07:02:30;37.45;;;7.18;;
27612;SDS011;15036;48.094;-1.690;2023-11-19T07:04:56;39.45;;;6.97;;
27612;SDS011;15036;48.094;-1.690;2023-11-19T07:07:21;33.80;;;6.43;;
27612;SDS011;15036;48.094;-1.690;2023-11-19T07:09:46;36.53;;;7.05;;
27612;SDS011;15036;48.094;-1.690;2023-11-19T07:12:13;37.33;;;6.32;;
27612;SDS011;15036;48.094;-1.690;2023-11-19T07:14:39;32.53;;;6.38;;
27612;SDS011;15036;48.094;-1.690;2023-11-19T07:17:05;35.78;;;7.28;;
27612;SDS011;15036;48.094;-1.690;2023-11-19T07:19:31;39.72;;;6.82;;
27612;SDS011;15036;48.094;-1.690;2023-11-19T07:21:57;32.97;;;6.68;;
27612;SDS011;15036;48.094;-1.690;2023-11-19T07:24:23;38.58;;;7.28;;
27612;SDS011;15036;48.094;-1.690;2023-11-19T07:26:49;35.63;;;8.90;;
27612;SDS011;15036;48.094;-1.690;2023-11-19T07:29:14;57.33;;;18.92;;
27612;SDS011;15036;48.094;-1.690;2023-11-19T07:31:43;50.03;;;13.02;;
27612;SDS011;15036;48.094;-1.690;2023-11-19T07:34:11;43.38;;;10.23;;
27612;SDS011;15036;48.094;-1.690;2023-11-19T07:36:37;37.60;;;10.10;;
27612;SDS011;15036;48.094;-1.690;2023-11-19T07:39:03;34.83;;;8.00;;
27612;SDS011;15036;48.094;-1.690;2023-11-19T07:41:30;38.75;;;9.15;;
27612;SDS011;15036;48.094;-1.690;2023-11-19T07:43:58;38.97;;;8.38;;
27612;SDS011;15036;48.094;-1.690;2023-11-19T07:46:25;40.22;;;8.00;;
27612;SDS011;15036;48.094;-1.690;2023-11-19T07:48:52;41.20;;;8.73;;
27612;SDS011;15036;48.094;-1.690;2023-11-19T07:51:17;38.13;;;8.55;;
27612;SDS011;15036;48.094;-1.690;2023-11-19T07:53:44;38.70;;;7.57;;
27612;SDS011;15036;48.094;-1.690;2023-11-19T07:56:10;34.05;;;7.25;;
27612;SDS011;15036;48.094;-1.690;2023-11-19T07:58:35;42.20;;;7.50;;
27612;SDS011;15036;48.094;-1.690;2023-11-19T08:01:01;41.50;;;7.38;;
27612;SDS011;15036;48.094;-1.690;2023-11-19T08:03:27;39.92;;;7.88;;
27612;SDS011;15036;48.094;-1.690;2023-11-19T08:05:55;37.03;;;7.40;;
27612;SDS011;15036;48.094;-1.690;2023-11-19T08:08:21;40.40;;;8.00;;
27612;SDS011;15036;48.094;-1.690;2023-11-19T08:10:46;40.50;;;7.68;;
27612;SDS011;15036;48.094;-1.690;2023-11-19T08:13:12;35.75;;;7.25;;
27612;SDS011;15036;48.094;-1.690;2023-11-19T08:15:38;40.65;;;8.27;;
27612;SDS011;15036;48.094;-1.690;2023-11-19T08:18:03;39.05;;;6.85;;
27612;SDS011;15036;48.094;-1.690;2023-11-19T08:20:28;44.38;;;7.57;;
27612;SDS011;15036;48.094;-1.690;2023-11-19T08:22:54;37.78;;;7.13;;
27612;SDS011;15036;48.094;-1.690;2023-11-19T08:25:19;46.75;;;8.48;;
27612;SDS011;15036;48.094;-1.690;2023-11-19T08:27:44;39.97;;;7.72;;
27612;SDS011;15036;48.094;-1.690;2023-11-19T08:30:10;42.78;;;8.55;;
27612;SDS011;15036;48.094;-1.690;2023-11-19T08:32:36;40.78;;;7.07;;
27612;SDS011;15036;48.094;-1.690;2023-11-19T08:35:02;41.10;;;7.55;;
27612;SDS011;15036;48.094;-1.690;2023-11-19T08:37:27;40.35;;;7.15;;
27612;SDS011;15036;48.094;-1.690;2023-11-19T08:39:53;42.67;;;8.00;;
27612;SDS011;15036;48.094;-1.690;2023-11-19T08:42:18;38.17;;;8.00;;
27612;SDS011;15036;48.094;-1.690;2023-11-19T08:44:44;40.83;;;7.63;;
27612;SDS011;15036;48.094;-1.690;2023-11-19T08:47:15;40.17;;;9.57;;
27612;SDS011;15036;48.094;-1.690;2023-11-19T08:49:42;43.97;;;9.65;;
27612;SDS011;15036;48.094;-1.690;2023-11-19T08:52:08;45.47;;;9.93;;
27612;SDS011;15036;48.094;-1.690;2023-11-19T08:54:34;46.25;;;8.60;;
27612;SDS011;15036;48.094;-1.690;2023-11-19T08:56:59;39.88;;;7.50;;
27612;SDS011;15036;48.094;-1.690;2023-11-19T08:59:25;45.25;;;7.75;;
27612;SDS011;15036;48.094;-1.690;2023-11-19T09:01:50;37.22;;;7.43;;
27612;SDS011;15036;48.094;-1.690;2023-11-19T09:04:16;43.05;;;7.72;;
27612;SDS011;15036;48.094;-1.690;2023-11-19T09:06:41;40.47;;;7.97;;
27612;SDS011;15036;48.094;-1.690;2023-11-19T09:09:07;37.30;;;7.53;;
27612;SDS011;15036;48.094;-1.690;2023-11-19T09:11:33;31.75;;;7.82;;
27612;SDS011;15036;48.094;-1.690;2023-11-19T09:13:58;40.42;;;8.13;;
27612;SDS011;15036;48.094;-1.690;2023-11-19T09:16:24;45.70;;;8.40;;
27612;SDS011;15036;48.094;-1.690;2023-11-19T09:18:50;37.50;;;7.40;;
27612;SDS011;15036;48.094;-1.690;2023-11-19T09:21:15;42.33;;;8.23;;
27612;SDS011;15036;48.094;-1.690;2023-11-19T09:23:40;42.13;;;7.75;;
27612;SDS011;15036;48.094;-1.690;2023-11-19T09:26:06;32.72;;;7.03;;
27612;SDS011;15036;48.094;-1.690;2023-11-19T09:28:35;36.53;;;7.07;;
27612;SDS011;15036;48.094;-1.690;2023-11-19T09:31:00;36.72;;;7.45;;
27612;SDS011;15036;48.094;-1.690;2023-11-19T09:33:29;38.00;;;6.70;;
27612;SDS011;15036;48.094;-1.690;2023-11-19T09:35:55;38.47;;;6.97;;
27612;SDS011;15036;48.094;-1.690;2023-11-19T09:38:21;37.30;;;7.38;;
27612;SDS011;15036;48.094;-1.690;2023-11-19T09:40:47;38.55;;;7.75;;
27612;SDS011;15036;48.094;-1.690;2023-11-19T09:43:12;31.77;;;6.78;;
27612;SDS011;15036;48.094;-1.690;2023-11-19T09:45:49;41.67;;;7.05;;
27612;SDS011;15036;48.094;-1.690;2023-11-19T09:48:16;33.83;;;7.35;;
27612;SDS011;15036;48.094;-1.690;2023-11-19T09:50:43;39.33;;;7.80;;
27612;SDS011;15036;48.094;-1.690;2023-11-19T09:53:11;38.03;;;6.70;;
27612;SDS011;15036;48.094;-1.690;2023-11-19T09:55:37;39.00;;;7.28;;
27612;SDS011;15036;48.094;-1.690;2023-11-19T09:58:02;43.42;;;8.07;;
27612;SDS011;15036;48.094;-1.690;2023-11-19T10:00:28;32.65;;;6.38;;
27612;SDS011;15036;48.094;-1.690;2023-11-19T10:02:55;37.50;;;7.10;;
27612;SDS011;15036;48.094;-1.690;2023-11-19T10:05:22;32.97;;;6.70;;
27612;SDS011;15036;48.094;-1.690;2023-11-19T10:07:50;32.78;;;6.78;;
27612;SDS011;15036;48.094;-1.690;2023-11-19T10:10:16;34.63;;;6.57;;
27612;SDS011;15036;48.094;-1.690;2023-11-19T10:12:44;42.10;;;7.30;;
27612;SDS011;15036;48.094;-1.690;2023-11-19T10:15:22;30.73;;;6.00;;
27612;SDS011;15036;48.094;-1.690;2023-11-19T10:17:49;39.40;;;7.50;;
27612;SDS011;15036;48.094;-1.690;2023-11-19T10:20:22;35.20;;;6.50;;
27612;SDS011;15036;48.094;-1.690;2023-11-19T10:22:47;39.58;;;7.00;;
27612;SDS011;15036;48.094;-1.690;2023-11-19T10:25:25;30.33;;;6.78;;
27612;SDS011;15036;48.094;-1.690;2023-11-19T10:27:52;37.78;;;6.93;;
27612;SDS011;15036;48.094;-1.690;2023-11-19T10:30:21;32.45;;;6.85;;
27612;SDS011;15036;48.094;-1.690;2023-11-19T10:33:06;35.50;;;6.35;;
27612;SDS011;15036;48.094;-1.690;2023-11-19T10:35:34;37.13;;;7.38;;
27612;SDS011;15036;48.094;-1.690;2023-11-19T10:38:01;35.03;;;6.20;;
27612;SDS011;15036;48.094;-1.690;2023-11-19T10:40:38;33.85;;;5.93;;
27612;SDS011;15036;48.094;-1.690;2023-11-19T10:43:07;36.80;;;6.15;;
27612;SDS011;15036;48.094;-1.690;2023-11-19T10:45:33;29.48;;;6.22;;
27612;SDS011;15036;48.094;-1.690;2023-11-19T10:47:59;39.28;;;7.43;;
27612;SDS011;15036;48.094;-1.690;2023-11-19T10:50:25;35.40;;;6.72;;
27612;SDS011;15036;48.094;-1.690;2023-11-19T10:52:55;32.83;;;6.53;;
27612;SDS011;15036;48.094;-1.690;2023-11-19T10:55:32;36.53;;;6.68;;
27612;SDS011;15036;48.094;-1.690;2023-11-19T10:58:00;30.55;;;5.93;;
27612;SDS011;15036;48.094;-1.690;2023-11-19T11:01:15;35.05;;;6.38;;
27612;SDS011;15036;48.094;-1.690;2023-11-19T11:03:19;33.08;;;6.53;;
27612;SDS011;15036;48.094;-1.690;2023-11-19T11:05:48;29.80;;;5.65;;
27612;SDS011;15036;48.094;-1.690;2023-11-19T11:08:14;25.58;;;5.72;;
27612;SDS011;15036;48.094;-1.690;2023-11-19T11:10:58;32.78;;;6.53;;
27612;SDS011;15036;48.094;-1.690;2023-11-19T11:13:25;37.45;;;7.10;;
27612;SDS011;15036;48.094;-1.690;2023-11-19T11:15:55;31.70;;;6.10;;
27612;SDS011;15036;48.094;-1.690;2023-11-19T11:18:22;32.60;;;6.20;;
27612;SDS011;15036;48.094;-1.690;2023-11-19T11:20:49;31.95;;;6.57;;
27612;SDS011;15036;48.094;-1.690;2023-11-19T11:29:01;26.75;;;5.43;;
27612;SDS011;15036;48.094;-1.690;2023-11-19T11:39:33;33.10;;;5.78;;
27612;SDS011;15036;48.094;-1.690;2023-11-19T11:48:20;34.50;;;6.68;;
27612;SDS011;15036;48.094;-1.690;2023-11-19T11:50:21;27.83;;;6.22;;
27612;SDS011;15036;48.094;-1.690;2023-11-19T11:55:25;23.42;;;5.57;;
27612;SDS011;15036;48.094;-1.690;2023-11-19T11:57:52;32.28;;;6.25;;
27612;SDS011;15036;48.094;-1.690;2023-11-19T12:00:22;28.15;;;5.53;;
27612;SDS011;15036;48.094;-1.690;2023-11-19T12:02:48;24.10;;;5.85;;
27612;SDS011;15036;48.094;-1.690;2023-11-19T12:05:14;29.13;;;6.30;;
27612;SDS011;15036;48.094;-1.690;2023-11-19T12:07:40;24.30;;;5.68;;
27612;SDS011;15036;48.094;-1.690;2023-11-19T12:10:06;25.10;;;5.38;;
27612;SDS011;15036;48.094;-1.690;2023-11-19T12:12:33;30.90;;;6.25;;
27612;SDS011;15036;48.094;-1.690;2023-11-19T12:15:04;31.42;;;5.85;;
27612;SDS011;15036;48.094;-1.690;2023-11-19T12:19:59;27.17;;;5.10;;
27612;SDS011;15036;48.094;-1.690;2023-11-19T12:22:30;21.58;;;4.78;;
27612;SDS011;15036;48.094;-1.690;2023-11-19T12:24:56;25.63;;;5.28;;
27612;SDS011;15036;48.094;-1.690;2023-11-19T12:27:21;23.13;;;5.20;;
27612;SDS011;15036;48.094;-1.690;2023-11-19T12:29:47;22.42;;;4.90;;
27612;SDS011;15036;48.094;-1.690;2023-11-19T12:32:13;22.25;;;4.75;;
27612;SDS011;15036;48.094;-1.690;2023-11-19T12:34:38;19.95;;;4.97;;
27612;SDS011;15036;48.094;-1.690;2023-11-19T12:37:04;22.25;;;4.75;;
27612;SDS011;15036;48.094;-1.690;2023-11-19T12:39:31;24.35;;;4.82;;
27612;SDS011;15036;48.094;-1.690;2023-11-19T12:41:57;23.30;;;5.30;;
27612;SDS011;15036;48.094;-1.690;2023-11-19T12:44:24;25.05;;;5.32;;
27612;SDS011;15036;48.094;-1.690;2023-11-19T12:47:03;22.95;;;4.97;;
27612;SDS011;15036;48.094;-1.690;2023-11-19T12:49:31;22.13;;;5.32;;
27612;SDS011;15036;48.094;-1.690;2023-11-19T12:51:56;22.85;;;5.30;;
27612;SDS011;15036;48.094;-1.690;2023-11-19T12:54:37;22.77;;;5.30;;
27612;SDS011;15036;48.094;-1.690;2023-11-19T12:57:02;28.90;;;5.60;;
27612;SDS011;15036;48.094;-1.690;2023-11-19T12:59:29;24.25;;;5.30;;
27612;SDS011;15036;48.094;-1.690;2023-11-19T13:01:58;20.48;;;4.72;;
27612;SDS011;15036;48.094;-1.690;2023-11-19T13:04:27;22.50;;;5.00;;
27612;SDS011;15036;48.094;-1.690;2023-11-19T13:06:55;25.98;;;5.65;;
27612;SDS011;15036;48.094;-1.690;2023-11-19T13:09:25;22.20;;;5.13;;
27612;SDS011;15036;48.094;-1.690;2023-11-19T13:14:18;23.17;;;4.80;;
27612;SDS011;15036;48.094;-1.690;2023-11-19T13:16:44;23.40;;;4.63;;
27612;SDS011;15036;48.094;-1.690;2023-11-19T13:19:15;20.38;;;4.30;;
27612;SDS011;15036;48.094;-1.690;2023-11-19T13:21:44;21.92;;;5.03;;
27612;SDS011;15036;48.094;-1.690;2023-11-19T13:24:12;21.85;;;4.57;;
27612;SDS011;15036;48.094;-1.690;2023-11-19T13:26:38;20.67;;;4.60;;
27612;SDS011;15036;48.094;-1.690;2023-11-19T13:29:03;24.70;;;4.63;;
27612;SDS011;15036;48.094;-1.690;2023-11-19T13:31:30;23.15;;;5.10;;
27612;SDS011;15036;48.094;-1.690;2023-11-19T13:33:56;21.00;;;4.55;;
27612;SDS011;15036;48.094;-1.690;2023-11-19T13:36:23;24.58;;;5.20;;
27612;SDS011;15036;48.094;-1.690;2023-11-19T13:38:48;22.27;;;4.80;;
27612;SDS011;15036;48.094;-1.690;2023-11-19T13:41:14;23.35;;;4.65;;
27612;SDS011;15036;48.094;-1.690;2023-11-19T13:43:39;24.48;;;5.10;;
27612;SDS011;15036;48.094;-1.690;2023-11-19T13:46:05;28.17;;;5.10;;
27612;SDS011;15036;48.094;-1.690;2023-11-19T13:48:31;20.80;;;4.70;;
27612;SDS011;15036;48.094;-1.690;2023-11-19T13:50:57;22.70;;;5.40;;
27612;SDS011;15036;48.094;-1.690;2023-11-19T13:53:23;23.65;;;4.72;;
27612;SDS011;15036;48.094;-1.690;2023-11-19T13:55:52;28.00;;;5.50;;
27612;SDS011;15036;48.094;-1.690;2023-11-19T13:58:18;19.48;;;4.70;;
27612;SDS011;15036;48.094;-1.690;2023-11-19T14:00:43;19.95;;;5.03;;
27612;SDS011;15036;48.094;-1.690;2023-11-19T14:03:09;23.33;;;5.75;;
27612;SDS011;15036;48.094;-1.690;2023-11-19T14:05:38;26.75;;;5.10;;
27612;SDS011;15036;48.094;-1.690;2023-11-19T14:08:06;26.92;;;4.88;;
27612;SDS011;15036;48.094;-1.690;2023-11-19T14:10:37;24.10;;;5.00;;
27612;SDS011;15036;48.094;-1.690;2023-11-19T14:13:08;21.67;;;4.88;;
27612;SDS011;15036;48.094;-1.690;2023-11-19T14:15:34;21.52;;;5.28;;
27612;SDS011;15036;48.094;-1.690;2023-11-19T14:18:01;23.33;;;4.45;;
27612;SDS011;15036;48.094;-1.690;2023-11-19T14:20:28;21.40;;;4.95;;
27612;SDS011;15036;48.094;-1.690;2023-11-19T14:22:53;22.58;;;4.60;;
27612;SDS011;15036;48.094;-1.690;2023-11-19T14:25:18;19.90;;;4.32;;
27612;SDS011;15036;48.094;-1.690;2023-11-19T14:27:44;19.70;;;4.90;;
27612;SDS011;15036;48.094;-1.690;2023-11-19T14:30:12;19.13;;;4.53;;
27612;SDS011;15036;48.094;-1.690;2023-11-19T14:32:38;19.42;;;4.45;;
27612;SDS011;15036;48.094;-1.690;2023-11-19T14:35:07;19.48;;;5.03;;
27612;SDS011;15036;48.094;-1.690;2023-11-19T14:37:33;22.15;;;5.10;;
27612;SDS011;15036;48.094;-1.690;2023-11-19T14:40:00;19.05;;;4.25;;
27612;SDS011;15036;48.094;-1.690;2023-11-19T14:42:28;20.88;;;4.40;;
27612;SDS011;15036;48.094;-1.690;2023-11-19T14:44:53;24.65;;;5.40;;
27612;SDS011;15036;48.094;-1.690;2023-11-19T14:47:20;24.60;;;5.28;;
27612;SDS011;15036;48.094;-1.690;2023-11-19T14:49:46;22.73;;;4.95;;